createdAt,value
2019-02-27T00:00:31.848Z,101746.09
2019-02-27T00:02:59.497Z,101762.02
2019-02-27T00:05:27.157Z,101753.11
2019-02-27T00:07:55.025Z,101746.14
2019-02-27T00:10:22.872Z,101739.88
2019-02-27T00:12:52.025Z,101742.09
2019-02-27T00:15:20.161Z,101750.94
2019-02-27T00:17:51.083Z,101752.16
2019-02-27T00:20:17.187Z,101743.40
2019-02-27T00:22:44.844Z,101746.35
2019-02-27T00:25:12.575Z,101740.94
2019-02-27T00:27:40.243Z,101748.74
2019-02-27T00:30:07.901Z,101745.13
2019-02-27T00:32:35.565Z,101740.67
2019-02-27T00:35:06.166Z,101737.83
2019-02-27T00:37:32.582Z,101738.02
2019-02-27T00:40:00.289Z,101735.37
2019-02-27T00:42:33.588Z,101738.99
2019-02-27T00:44:57.345Z,101738.44
2019-02-27T00:47:25.005Z,101736.44
2019-02-27T00:49:52.660Z,101736.06
2019-02-27T00:52:20.317Z,101728.19
2019-02-27T00:54:47.982Z,101733.11
2019-02-27T00:57:20.562Z,101732.06
2019-02-27T00:59:44.999Z,101731.35
2019-02-27T01:02:12.653Z,101722.09
2019-02-27T01:04:40.317Z,101721.34
2019-02-27T01:07:07.975Z,101721.45
2019-02-27T01:09:37.258Z,101728.91
2019-02-27T01:12:04.993Z,101730.38
2019-02-27T01:14:36.941Z,101723.52
2019-02-27T01:17:02.040Z,101722.17
2019-02-27T01:19:29.697Z,101719.24
2019-02-27T01:21:57.344Z,101724.00
2019-02-27T01:24:25.008Z,101725.20
2019-02-27T01:26:52.673Z,101720.39
2019-02-27T01:29:20.330Z,101720.41
2019-02-27T01:31:47.971Z,101718.61
2019-02-27T01:34:15.637Z,101723.89
2019-02-27T01:36:43.280Z,101717.15
2019-02-27T01:39:11.383Z,101717.03
2019-02-27T01:41:39.730Z,101710.58
2019-02-27T01:44:07.386Z,101714.54
2019-02-27T01:46:35.036Z,101710.36
2019-02-27T01:49:02.692Z,101699.56
2019-02-27T01:51:30.357Z,101703.64
2019-02-27T01:53:58.004Z,101692.78
2019-02-27T01:56:28.928Z,101691.02
2019-02-27T01:58:55.037Z,101694.09
2019-02-27T02:01:29.749Z,101693.19
2019-02-27T02:03:53.751Z,101690.94
2019-02-27T02:06:21.400Z,101690.38
2019-02-27T02:08:49.054Z,101689.48
2019-02-27T02:11:16.727Z,101689.72
2019-02-27T02:13:47.992Z,101690.63
2019-02-27T02:16:13.733Z,101684.09
2019-02-27T02:18:41.383Z,101685.99
2019-02-27T02:21:09.045Z,101683.14
2019-02-27T02:23:36.714Z,101684.80
2019-02-27T02:26:04.375Z,101682.14
2019-02-27T02:28:32.035Z,101677.09
2019-02-27T02:31:04.869Z,101676.20
2019-02-27T02:33:30.393Z,101669.78
2019-02-27T02:35:58.321Z,101674.56
2019-02-27T02:38:25.970Z,101671.16
2019-02-27T02:40:53.628Z,101673.28
2019-02-27T02:43:21.293Z,101678.94
2019-02-27T02:45:48.947Z,101673.95
2019-02-27T02:48:16.610Z,101671.95
2019-02-27T02:50:44.279Z,101670.77
2019-02-27T02:53:11.931Z,101668.31
2019-02-27T02:55:39.591Z,101653.11
2019-02-27T02:58:07.767Z,101660.09
2019-02-27T03:00:39.099Z,101646.36
2019-02-27T03:03:05.976Z,101647.84
2019-02-27T03:05:33.639Z,101645.09
2019-02-27T03:08:01.321Z,101641.62
2019-02-27T03:10:29.054Z,101647.45
2019-02-27T03:12:56.722Z,101639.30
2019-02-27T03:15:28.455Z,101629.42
2019-02-27T03:17:54.997Z,101633.22
2019-02-27T03:20:23.002Z,101632.17
2019-02-27T03:22:50.655Z,101631.52
2019-02-27T03:25:18.402Z,101633.82
2019-02-27T03:27:46.061Z,101629.05
2019-02-27T03:30:13.740Z,101631.42
2019-02-27T03:32:43.611Z,101627.83
2019-02-27T03:35:10.779Z,101619.89
2019-02-27T03:37:38.448Z,101616.48
2019-02-27T03:40:10.672Z,101620.35
2019-02-27T03:42:35.480Z,101623.04
2019-02-27T03:45:03.143Z,101619.67
2019-02-27T03:47:30.811Z,101618.74
2019-02-27T03:49:58.467Z,101623.77
2019-02-27T03:52:26.143Z,101614.98
2019-02-27T03:54:57.092Z,101608.48
2019-02-27T03:57:23.170Z,101616.74
2019-02-27T03:59:50.846Z,101605.03
2019-02-27T04:02:18.509Z,101609.22
2019-02-27T04:04:46.166Z,101605.17
2019-02-27T04:07:13.832Z,101602.84
2019-02-27T04:09:41.499Z,101615.77
2019-02-27T04:12:09.155Z,101622.88
2019-02-27T04:14:40.817Z,101619.69
2019-02-27T04:17:07.526Z,101612.71
2019-02-27T04:19:39.068Z,101611.78
2019-02-27T04:22:04.930Z,101610.23
2019-02-27T04:24:32.580Z,101613.59
2019-02-27T04:27:00.249Z,101614.13
2019-02-27T04:29:27.918Z,101621.83
2019-02-27T04:31:55.586Z,101620.47
2019-02-27T04:34:23.237Z,101627.53
2019-02-27T04:36:50.926Z,101623.80
2019-02-27T04:39:18.598Z,101630.94
2019-02-27T04:41:46.270Z,101630.84
2019-02-27T04:44:13.930Z,101628.46
2019-02-27T04:46:41.598Z,101634.22
2019-02-27T04:49:09.264Z,101638.87
2019-02-27T04:51:36.935Z,101631.77
2019-02-27T04:54:07.296Z,101639.80
2019-02-27T04:56:34.058Z,101643.59
2019-02-27T04:59:01.725Z,101639.00
2019-02-27T05:01:29.387Z,101637.73
2019-02-27T05:04:01.209Z,101637.20
2019-02-27T05:06:26.423Z,101638.50
2019-02-27T05:08:54.083Z,101631.44
2019-02-27T05:11:21.757Z,101638.67
2019-02-27T05:13:53.966Z,101631.49
2019-02-27T05:16:18.786Z,101634.72
2019-02-27T05:18:46.451Z,101644.11
2019-02-27T05:21:14.117Z,101642.19
2019-02-27T05:23:41.774Z,101638.10
2019-02-27T05:26:09.437Z,101628.30
2019-02-27T05:28:37.087Z,101626.54
2019-02-27T05:31:04.750Z,101640.83
2019-02-27T05:33:35.683Z,101634.26
2019-02-27T05:36:01.803Z,101635.44
2019-02-27T05:38:29.587Z,101639.72
2019-02-27T05:40:59.865Z,101636.30
2019-02-27T05:43:26.689Z,101637.48
2019-02-27T05:45:54.405Z,101634.81
2019-02-27T05:48:22.079Z,101636.80
2019-02-27T05:50:49.734Z,101636.21
2019-02-27T05:53:17.430Z,101636.67
2019-02-27T05:55:45.093Z,101639.53
2019-02-27T05:58:12.765Z,101634.94
2019-02-27T06:00:40.431Z,101636.73
2019-02-27T06:03:08.094Z,101631.66
2019-02-27T06:05:36.020Z,101635.28
2019-02-27T06:08:04.407Z,101635.53
2019-02-27T06:10:32.091Z,101637.91
2019-02-27T06:12:59.757Z,101634.72
2019-02-27T06:15:28.600Z,101628.12
2019-02-27T06:17:56.985Z,101631.19
2019-02-27T06:20:24.649Z,101625.08
2019-02-27T06:22:52.316Z,101624.64
2019-02-27T06:25:23.228Z,101622.11
2019-02-27T06:27:49.457Z,101622.63
2019-02-27T06:30:17.116Z,101621.67
2019-02-27T06:32:44.780Z,101615.12
2019-02-27T06:35:12.438Z,101624.00
2019-02-27T06:37:40.106Z,101620.72
2019-02-27T06:40:08.085Z,101615.25
2019-02-27T06:42:35.813Z,101607.48
2019-02-27T06:45:03.470Z,101603.78
2019-02-27T06:47:33.034Z,101600.42
2019-02-27T06:50:00.495Z,101603.02
2019-02-27T06:52:28.158Z,101595.76
2019-02-27T06:54:55.814Z,101601.69
2019-02-27T06:57:23.494Z,101605.44
2019-02-27T06:59:51.150Z,101591.81
2019-02-27T07:02:19.147Z,101588.30
2019-02-27T07:04:48.191Z,101593.47
2019-02-27T07:07:15.855Z,101586.65
2019-02-27T07:09:45.823Z,101590.13
2019-02-27T07:12:13.170Z,101582.42
2019-02-27T07:14:40.826Z,101578.63
2019-02-27T07:17:08.494Z,101581.33
2019-02-27T07:19:36.155Z,101579.23
2019-02-27T07:22:06.253Z,101574.92
2019-02-27T07:24:33.840Z,101567.77
2019-02-27T07:27:01.534Z,101574.05
2019-02-27T07:29:29.189Z,101569.99
2019-02-27T07:31:57.242Z,101572.66
2019-02-27T07:34:25.103Z,101563.20
2019-02-27T07:36:52.774Z,101567.67
2019-02-27T07:39:20.445Z,101570.22
2019-02-27T07:41:48.102Z,101563.42
2019-02-27T07:44:15.761Z,101565.83
2019-02-27T07:46:43.424Z,101567.20
2019-02-27T07:49:11.090Z,101561.73
2019-02-27T07:51:38.755Z,101559.73
2019-02-27T07:54:06.426Z,101557.60
2019-02-27T07:56:34.074Z,101554.58
2019-02-27T07:59:01.742Z,101549.23
2019-02-27T08:01:29.394Z,101544.05
2019-02-27T08:03:57.055Z,101549.24
2019-02-27T08:06:24.709Z,101555.70
2019-02-27T08:08:56.980Z,101546.34
2019-02-27T08:11:21.712Z,101543.11
2019-02-27T08:13:49.368Z,101551.56
2019-02-27T08:16:17.025Z,101544.30
2019-02-27T08:18:44.674Z,101545.91
2019-02-27T08:21:12.329Z,101548.14
2019-02-27T08:23:39.979Z,101541.22
2019-02-27T08:26:07.627Z,101542.83
2019-02-27T08:28:35.297Z,101540.75
2019-02-27T08:31:02.944Z,101540.88
2019-02-27T08:33:30.582Z,101547.23
2019-02-27T08:35:58.247Z,101538.20
2019-02-27T08:38:25.933Z,101536.86
2019-02-27T08:40:57.518Z,101533.93
2019-02-27T08:43:22.943Z,101531.97
2019-02-27T08:45:50.605Z,101530.91
2019-02-27T08:48:18.257Z,101526.19
2019-02-27T08:50:45.913Z,101515.02
2019-02-27T08:53:13.567Z,101518.98
2019-02-27T08:55:41.222Z,101509.05
2019-02-27T08:58:08.868Z,101503.61
2019-02-27T09:00:36.528Z,101498.77
2019-02-27T09:03:04.204Z,101494.79
2019-02-27T09:05:31.851Z,101492.41
2019-02-27T09:07:59.517Z,101488.55
2019-02-27T09:10:30.457Z,101483.26
2019-02-27T09:13:04.964Z,101480.22
2019-02-27T09:15:25.883Z,101469.60
2019-02-27T09:17:53.538Z,101472.13
2019-02-27T09:20:21.199Z,101467.64
2019-02-27T09:22:48.844Z,101460.66
2019-02-27T09:25:16.505Z,101462.15
2019-02-27T09:27:44.195Z,101456.04
2019-02-27T09:30:11.961Z,101452.18
2019-02-27T09:32:39.681Z,101449.91
2019-02-27T09:35:07.339Z,101441.22
2019-02-27T09:37:34.999Z,101446.60
2019-02-27T09:40:05.681Z,101440.55
2019-02-27T09:42:32.039Z,101448.77
2019-02-27T09:44:59.704Z,101442.33
2019-02-27T09:47:27.360Z,101436.95
2019-02-27T09:49:55.024Z,101433.63
2019-02-27T09:52:23.760Z,101424.49
2019-02-27T09:54:51.532Z,101421.58
2019-02-27T09:57:19.194Z,101424.47
2019-02-27T09:59:46.862Z,101426.39
2019-02-27T10:02:14.521Z,101405.12
2019-02-27T10:04:42.193Z,101408.14
2019-02-27T10:07:09.868Z,101407.23
2019-02-27T10:09:37.539Z,101398.12
2019-02-27T10:12:05.201Z,101399.07
2019-02-27T10:14:32.867Z,101396.88
2019-02-27T10:17:00.523Z,101392.59
2019-02-27T10:19:28.229Z,101388.28
2019-02-27T10:21:55.959Z,101391.13
2019-02-27T10:24:23.624Z,101394.78
2019-02-27T10:26:53.599Z,101386.77
2019-02-27T10:29:20.655Z,101385.27
2019-02-27T10:31:48.325Z,101381.86
2019-02-27T10:34:17.599Z,101376.13
2019-02-27T10:36:45.415Z,101374.83
2019-02-27T10:39:13.405Z,101366.78
2019-02-27T10:41:41.088Z,101369.84
2019-02-27T10:44:08.769Z,101368.51
2019-02-27T10:46:36.425Z,101355.81
2019-02-27T10:49:04.155Z,101357.75
2019-02-27T10:51:31.810Z,101348.55
2019-02-27T10:54:02.329Z,101339.45
2019-02-27T10:56:28.841Z,101337.00
2019-02-27T10:58:56.499Z,101332.95
2019-02-27T11:01:24.167Z,101327.62
2019-02-27T11:03:51.831Z,101322.66
2019-02-27T11:06:19.556Z,101317.60
2019-02-27T11:08:47.345Z,101319.00
2019-02-27T11:11:16.442Z,101313.73
2019-02-27T11:13:44.386Z,101310.70
2019-02-27T11:16:12.061Z,101309.67
2019-02-27T11:18:39.731Z,101294.55
2019-02-27T11:21:07.416Z,101293.66
2019-02-27T11:23:35.181Z,101290.39
2019-02-27T11:26:02.851Z,101277.11
2019-02-27T11:28:30.523Z,101274.63
2019-02-27T11:30:58.227Z,101267.12
2019-02-27T11:33:26.216Z,101264.91
2019-02-27T11:35:54.019Z,101261.73
2019-02-27T11:38:24.637Z,101253.34
2019-02-27T11:40:51.057Z,101249.52
2019-02-27T11:43:18.729Z,101241.32
2019-02-27T11:45:46.402Z,101239.39
2019-02-27T11:48:14.058Z,101234.26
2019-02-27T11:50:41.724Z,101227.16
2019-02-27T11:53:09.370Z,101221.77
2019-02-27T11:55:37.036Z,101216.20
2019-02-27T11:58:05.564Z,101214.41
2019-02-27T12:00:33.928Z,101211.95
2019-02-27T12:03:01.583Z,101206.78
2019-02-27T12:05:33.855Z,101202.69
2019-02-27T12:07:58.666Z,101201.19
2019-02-27T12:10:26.407Z,101197.00
2019-02-27T12:12:59.572Z,101187.73
2019-02-27T12:15:23.451Z,101187.17
2019-02-27T12:17:51.142Z,101180.12
2019-02-27T12:20:18.999Z,101181.94
2019-02-27T12:22:46.768Z,101170.40
2019-02-27T12:25:14.507Z,101164.38
2019-02-27T12:27:49.188Z,101155.20
2019-02-27T12:30:11.595Z,101156.31
2019-02-27T12:32:39.463Z,101160.38
2019-02-27T12:35:08.237Z,101155.55
2019-02-27T12:37:36.473Z,101151.09
2019-02-27T12:40:04.134Z,101146.31
2019-02-27T12:42:37.267Z,101140.26
2019-02-27T12:45:01.172Z,101140.26
2019-02-27T12:47:28.839Z,101137.56
2019-02-27T12:49:56.500Z,101135.58
2019-02-27T12:52:24.167Z,101126.16
2019-02-27T12:54:51.838Z,101115.78
2019-02-27T12:57:19.498Z,101123.27
2019-02-27T12:59:47.140Z,101122.55
2019-02-27T13:02:14.813Z,101117.22
2019-02-27T13:04:42.463Z,101111.25
2019-02-27T13:07:10.726Z,101107.38
2019-02-27T13:09:38.974Z,101105.23
2019-02-27T13:12:06.643Z,101099.86
2019-02-27T13:14:34.324Z,101095.23
2019-02-27T13:17:02.005Z,101090.41
2019-02-27T13:19:29.652Z,101090.41
2019-02-27T13:21:57.311Z,101080.90
2019-02-27T13:24:24.968Z,101089.48
2019-02-27T13:26:52.639Z,101087.23
2019-02-27T13:29:21.389Z,101085.53
2019-02-27T13:31:51.501Z,101082.70
2019-02-27T13:34:18.635Z,101072.55
2019-02-27T13:36:46.292Z,101073.23
2019-02-27T13:39:13.956Z,101075.69
2019-02-27T13:41:44.733Z,101078.00
2019-02-27T13:44:10.986Z,101077.22
2019-02-27T13:46:38.639Z,101071.50
2019-02-27T13:49:06.303Z,101060.59
2019-02-27T13:51:37.243Z,101050.33
2019-02-27T13:54:03.358Z,101053.66
2019-02-27T13:56:31.039Z,101040.11
2019-02-27T13:58:58.728Z,101043.75
2019-02-27T14:01:28.540Z,101034.04
2019-02-27T14:03:55.769Z,101036.42
2019-02-27T14:06:23.460Z,101025.10
2019-02-27T14:08:51.114Z,101017.00
2019-02-27T14:11:18.781Z,101005.70
2019-02-27T14:13:46.427Z,101004.13
2019-02-27T14:16:14.344Z,100998.87
2019-02-27T14:18:42.231Z,100988.59
2019-02-27T14:21:10.053Z,100980.46
2019-02-27T14:23:37.792Z,100980.73
2019-02-27T14:26:06.719Z,100973.14
2019-02-27T14:28:34.807Z,100966.60
2019-02-27T14:31:02.531Z,100958.82
2019-02-27T14:33:30.280Z,100951.13
2019-02-27T14:35:57.930Z,100947.80
2019-02-27T14:38:25.595Z,100946.84
2019-02-27T14:40:53.270Z,100939.92
2019-02-27T14:43:20.979Z,100934.78
2019-02-27T14:45:50.649Z,100932.14
2019-02-27T14:48:21.075Z,100928.86
2019-02-27T14:50:47.372Z,100934.17
2019-02-27T14:53:16.530Z,100927.62
2019-02-27T14:55:44.471Z,100928.55
2019-02-27T14:58:12.134Z,100929.84
2019-02-27T15:00:40.881Z,100924.62
2019-02-27T15:03:08.861Z,100921.30
2019-02-27T15:05:37.100Z,100920.63
2019-02-27T15:08:05.988Z,100912.95
2019-02-27T15:10:33.636Z,100915.36
2019-02-27T15:13:01.283Z,100910.80
2019-02-27T15:15:29.085Z,100913.28
2019-02-27T15:17:56.837Z,100905.77
2019-02-27T15:20:24.505Z,100904.42
2019-02-27T15:22:52.708Z,100894.19
2019-02-27T15:25:21.315Z,100885.34
2019-02-27T15:27:48.966Z,100885.13
2019-02-27T15:30:16.707Z,100882.53
2019-02-27T15:32:44.647Z,100875.06
2019-02-27T15:35:12.293Z,100870.08
2019-02-27T15:37:39.951Z,100866.82
2019-02-27T15:40:07.612Z,100864.54
2019-02-27T15:42:35.286Z,100858.28
2019-02-27T15:45:03.201Z,100858.28
2019-02-27T15:47:33.541Z,100863.77
2019-02-27T15:50:02.523Z,100856.77
2019-02-27T15:52:29.719Z,100855.18
2019-02-27T15:54:59.184Z,100849.30
2019-02-27T15:57:26.869Z,100844.11
2019-02-27T15:59:54.519Z,100838.01
2019-02-27T16:02:22.166Z,100833.09
2019-02-27T16:04:55.144Z,100825.86
2019-02-27T16:07:19.213Z,100821.66
2019-02-27T16:09:47.312Z,100816.73
2019-02-27T16:12:15.120Z,100819.97
2019-02-27T16:14:43.661Z,100813.49
2019-02-27T16:17:11.597Z,100817.36
2019-02-27T16:19:42.107Z,100811.61
2019-02-27T16:22:08.732Z,100815.91
2019-02-27T16:24:36.466Z,100805.51
2019-02-27T16:27:04.192Z,100802.99
2019-02-27T16:29:31.841Z,100809.49
2019-02-27T16:31:59.478Z,100808.84
2019-02-27T16:34:29.591Z,100805.91
2019-02-27T16:36:56.502Z,100804.55
2019-02-27T16:39:24.155Z,100797.58
2019-02-27T16:41:51.828Z,100793.44
2019-02-27T16:44:22.022Z,100789.97
2019-02-27T16:46:48.876Z,100788.91
2019-02-27T16:49:16.533Z,100788.08
2019-02-27T16:51:44.193Z,100792.48
2019-02-27T16:54:11.839Z,100791.51
2019-02-27T16:56:39.500Z,100789.15
2019-02-27T16:59:08.596Z,100790.86
2019-02-27T17:01:36.573Z,100790.09
2019-02-27T17:04:04.228Z,100792.25
2019-02-27T17:06:31.888Z,100790.04
2019-02-27T17:08:59.553Z,100795.41
2019-02-27T17:11:29.458Z,100787.36
2019-02-27T17:13:57.753Z,100783.25
2019-02-27T17:16:25.617Z,100772.70
2019-02-27T17:18:53.267Z,100779.59
2019-02-27T17:21:22.664Z,100767.36
2019-02-27T17:23:50.286Z,100767.47
2019-02-27T17:26:17.939Z,100768.13
2019-02-27T17:28:45.611Z,100769.04
2019-02-27T17:31:13.252Z,100767.88
2019-02-27T17:33:40.912Z,100762.64
2019-02-27T17:36:08.576Z,100763.53
2019-02-27T17:38:36.233Z,100766.04
2019-02-27T17:41:03.888Z,100759.36
2019-02-27T17:43:31.534Z,100763.91
2019-02-27T17:45:59.201Z,100767.23
2019-02-27T17:48:26.856Z,100764.14
2019-02-27T17:50:54.509Z,100757.62
2019-02-27T17:53:22.794Z,100760.36
2019-02-27T17:55:51.199Z,100762.74
2019-02-27T17:58:18.847Z,100766.61
2019-02-27T18:00:49.961Z,100759.67
2019-02-27T18:03:16.691Z,100754.34
2019-02-27T18:05:44.334Z,100742.45
2019-02-27T18:08:15.881Z,100751.59
2019-02-27T18:10:41.427Z,100750.84
2019-02-27T18:13:09.075Z,100743.23
2019-02-27T18:15:36.728Z,100744.60
2019-02-27T18:18:07.553Z,100741.97
2019-02-27T18:20:33.716Z,100736.25
2019-02-27T18:23:01.372Z,100733.78
2019-02-27T18:25:29.030Z,100732.89
2019-02-27T18:27:59.605Z,100729.56
2019-02-27T18:30:26.048Z,100726.28
2019-02-27T18:32:53.710Z,100723.30
2019-02-27T18:35:21.359Z,100713.42
2019-02-27T18:37:53.300Z,100709.18
2019-02-27T18:40:18.378Z,100705.13
2019-02-27T18:42:46.100Z,100706.28
2019-02-27T18:45:15.267Z,100699.16
2019-02-27T18:47:43.105Z,100704.80
2019-02-27T18:50:10.760Z,100707.49
2019-02-27T18:52:39.041Z,100700.26
2019-02-27T18:55:06.843Z,100691.78
2019-02-27T18:57:34.495Z,100693.44
2019-02-27T19:00:02.468Z,100692.01
2019-02-27T19:02:30.182Z,100690.63
2019-02-27T19:04:57.825Z,100684.20
2019-02-27T19:07:25.474Z,100676.86
2019-02-27T19:09:53.127Z,100683.55
2019-02-27T19:12:25.433Z,100674.28
2019-02-27T19:14:50.132Z,100674.47
2019-02-27T19:17:17.780Z,100666.70
2019-02-27T19:19:48.156Z,100659.91
2019-02-27T19:22:14.780Z,100660.71
2019-02-27T19:24:42.441Z,100655.39
2019-02-27T19:27:10.100Z,100653.22
2019-02-27T19:29:37.764Z,100643.96
2019-02-27T19:32:05.404Z,100644.13
2019-02-27T19:34:33.122Z,100646.28
2019-02-27T19:37:02.602Z,100645.05
2019-02-27T19:39:30.139Z,100644.19
2019-02-27T19:41:57.792Z,100642.95
2019-02-27T19:44:28.575Z,100643.73
2019-02-27T19:46:54.787Z,100641.70
2019-02-27T19:49:22.436Z,100633.77
2019-02-27T19:51:54.561Z,100629.61
2019-02-27T19:54:19.471Z,100629.03
2019-02-27T19:56:47.114Z,100625.44
2019-02-27T19:59:14.766Z,100624.36
2019-02-27T20:01:47.028Z,100618.24
2019-02-27T20:04:12.828Z,100608.24
2019-02-27T20:06:40.642Z,100603.52
2019-02-27T20:09:08.345Z,100598.58
2019-02-27T20:11:40.075Z,100597.92
2019-02-27T20:14:05.440Z,100589.74
2019-02-27T20:16:33.104Z,100587.91
2019-02-27T20:19:00.763Z,100584.52
2019-02-27T20:21:28.413Z,100586.45
2019-02-27T20:24:01.171Z,100582.42
2019-02-27T20:26:25.801Z,100569.73
2019-02-27T20:28:53.451Z,100569.52
2019-02-27T20:31:21.261Z,100562.63
2019-02-27T20:33:48.982Z,100552.03
2019-02-27T20:36:16.641Z,100564.23
2019-02-27T20:38:44.287Z,100551.89
2019-02-27T20:41:11.946Z,100552.14
2019-02-27T20:43:39.610Z,100541.72
2019-02-27T20:46:07.424Z,100541.46
2019-02-27T20:48:35.745Z,100545.16
2019-02-27T20:51:06.022Z,100535.86
2019-02-27T20:53:33.789Z,100528.34
2019-02-27T20:56:03.106Z,100528.55
2019-02-27T20:58:30.838Z,100521.05
2019-02-27T21:00:58.567Z,100520.76
2019-02-27T21:03:27.357Z,100508.06
2019-02-27T21:05:55.763Z,100510.20
2019-02-27T21:08:23.427Z,100502.15
2019-02-27T21:10:54.876Z,100492.33
2019-02-27T21:13:20.434Z,100495.23
2019-02-27T21:15:48.096Z,100484.53
2019-02-27T21:18:15.755Z,100488.42
2019-02-27T21:20:45.159Z,100476.84
2019-02-27T21:23:12.795Z,100479.36
2019-02-27T21:25:40.449Z,100472.64
2019-02-27T21:28:08.095Z,100458.80
2019-02-27T21:30:35.755Z,100461.35
2019-02-27T21:33:03.420Z,100451.84
2019-02-27T21:35:31.104Z,100448.45
2019-02-27T21:37:58.785Z,100447.67
2019-02-27T21:40:26.449Z,100443.91
2019-02-27T21:42:54.096Z,100446.78
2019-02-27T21:45:21.766Z,100441.44
2019-02-27T21:47:51.930Z,100443.54
2019-02-27T21:50:18.785Z,100430.57
2019-02-27T21:52:46.427Z,100447.17
2019-02-27T21:55:14.085Z,100432.80
2019-02-27T21:57:41.817Z,100427.84
2019-02-27T22:00:11.371Z,100433.03
2019-02-27T22:02:39.169Z,100429.67
2019-02-27T22:05:06.823Z,100425.02
2019-02-27T22:07:34.474Z,100425.17
2019-02-27T22:10:02.126Z,100417.99
2019-02-27T22:12:32.375Z,100415.31
2019-02-27T22:15:00.279Z,100414.08
2019-02-27T22:17:28.167Z,100421.64
2019-02-27T22:19:55.832Z,100416.30
2019-02-27T22:22:23.472Z,100409.12
2019-02-27T22:24:52.290Z,100406.83
2019-02-27T22:27:20.481Z,100407.98
2019-02-27T22:29:48.141Z,100404.03
2019-02-27T22:32:15.797Z,100402.39
2019-02-27T22:34:43.440Z,100400.31
2019-02-27T22:37:11.088Z,100393.11
2019-02-27T22:39:38.740Z,100390.92
2019-02-27T22:42:06.394Z,100397.44
2019-02-27T22:44:34.057Z,100386.81
2019-02-27T22:47:01.718Z,100380.27
2019-02-27T22:49:31.948Z,100372.23
2019-02-27T22:51:58.727Z,100365.22
2019-02-27T22:54:26.363Z,100363.02
2019-02-27T22:56:54.015Z,100363.53
2019-02-27T22:59:21.658Z,100355.06
2019-02-27T23:01:50.652Z,100350.02
2019-02-27T23:04:18.633Z,100353.95
2019-02-27T23:06:47.175Z,100342.67
2019-02-27T23:09:15.707Z,100342.89
2019-02-27T23:11:43.440Z,100335.01
2019-02-27T23:14:11.097Z,100328.16
2019-02-27T23:16:38.756Z,100325.34
2019-02-27T23:19:06.438Z,100319.45
2019-02-27T23:21:34.071Z,100311.83
2019-02-27T23:24:01.720Z,100311.34
2019-02-27T23:26:29.551Z,100312.17
2019-02-27T23:28:57.205Z,100310.81
2019-02-27T23:31:24.843Z,100306.30
2019-02-27T23:33:52.521Z,100306.58
2019-02-27T23:36:21.885Z,100310.52
2019-02-27T23:38:49.549Z,100311.16
2019-02-27T23:41:17.192Z,100302.52
2019-02-27T23:43:44.839Z,100303.08
2019-02-27T23:46:12.498Z,100297.85
2019-02-27T23:48:40.136Z,100290.52
2019-02-27T23:51:07.784Z,100280.26
2019-02-27T23:53:35.430Z,100276.30
2019-02-27T23:56:03.084Z,100267.98
2019-02-27T23:58:30.725Z,100264.48
